Data for 08/03/2016

Time Sea-Level Adjusted Pressure Absolute Pressure Temperature Relative Humidity Dew Point   
(mb) (inHg) (mb) (inHg) (C) (F) (%) (C) (F)
00:05 1016 30 845 24.95 21.3 70.3 24 0 32.1
00:10 1016 30 846 24.98 21.1 69.9 25 0.2 32.3
00:15 1016 30 846 24.98 20.8 69.4 27 1.4 34.5
00:20 1016 30 846 24.98 19.9 67.8 27 0.4 32.8
00:25 1017 30.03 846 24.98 19.7 67.5 26 0 32
00:30 1017 30.03 846 24.98 20.3 68.5 26 0.1 32.1
00:35 1017 30.03 846 24.98 20.5 68.9 25 0 32.1
00:40 1017 30.03 846 24.98 20.4 68.7 25 0.1 32.1
00:45 1017 30.03 846 24.98 20.4 68.8 25 0.2 32.3
00:50 1017 30.03 846 24.98 20.4 68.7 25 0.1 32.2
00:55 1016 30 846 24.98 20.5 68.9 25 0.2 32.3
01:00 1017 30.03 846 24.98 20.3 68.5 26 0.5 32.9
01:05 1017 30.03 846 24.98 19.8 67.7 30 1.8 35.2
01:10 1016 30 846 24.98 19.5 67.2 28 0.5 32.8
01:15 1017 30.03 846 24.98 19.8 67.6 27 0.4 32.8
01:20 1016 30 846 24.98 19.9 67.8 27 0.4 32.6
01:25 1017 30.03 846 24.98 19.9 67.9 26 -0 31.9
01:30 1016 30 846 24.98 19.9 67.9 26 0 32.1
01:35 1016 30 846 24.98 19.5 67 28 0.6 33
01:40 1016 30 846 24.98 19 66.2 29 0.7 33.2
01:45 1016 30 846 24.98 18.6 65.5 30 1 33.8
01:50 1016 30 846 24.98 18.2 64.8 31 0.9 33.6
01:55 1016 30 846 24.98 18 64.4 30 0.3 32.6
02:00 1016 30 846 24.98 17.8 64 30 0.1 32.1
02:05 1016 30 846 24.98 18.3 64.9 28 -0.5 31
02:10 1016 30 846 24.98 18.4 65.1 29 0.2 32.4
02:15 1016 30 846 24.98 17.9 64.3 30 0.4 32.7
02:20 1016 30 846 24.98 17.7 63.8 31 0.4 32.7
02:25 1016 30 846 24.98 17.5 63.5 31 0.1 32.2
02:30 1017 30.03 846 24.98 17.5 63.4 31 0.1 32.2
02:35 1017 30.03 846 24.98 17.3 63.2 31 0.2 32.4
02:40 1017 30.03 846 24.98 17.3 63.2 31 -0 32
02:45 1017 30.03 846 24.98 17.4 63.4 31 0.3 32.6
02:50 1017 30.03 846 24.98 17.4 63.3 31 0.4 32.7
02:55 1017 30.03 846 24.98 17.1 62.8 32 0.6 33
03:00 1017 30.03 846 24.98 16.8 62.2 36 1.7 35.1
03:05 1017 30.03 846 24.98 16.3 61.4 36 1.3 34.4
03:10 1017 30.03 846 24.98 15.6 60.1 37 1.1 33.9
03:15 1017 30.03 846 24.98 15.5 59.9 38 1.2 34.2
03:20 1017 30.03 846 24.98 16 60.9 36 1.1 34.1
03:25 1017 30.03 847 25.01 16.8 62.2 34 0.9 33.7
03:30 1017 30.03 847 25.01 16.8 62.3 33 0.7 33.3
03:35 1017 30.03 847 25.01 16.8 62.2 31 -0.3 31.5
03:40 1017 30.03 847 25.01 17.3 63.1 30 -0.2 31.7
03:45 1018 30.06 847 25.01 17.1 62.7 31 0 32
03:50 1018 30.06 847 25.01 16.8 62.2 32 0.1 32.2
03:55 1018 30.06 847 25.01 16.4 61.6 33 0.1 32.2
04:00 1018 30.06 847 25.01 16.3 61.4 33 0.2 32.3
04:05 1018 30.06 847 25.01 16.1 60.9 34 0.4 32.7
04:10 1018 30.06 847 25.01 15.8 60.5 35 0.6 33.2
04:15 1018 30.06 847 25.01 15.5 60 36 0.8 33.4
04:20 1018 30.06 847 25.01 15.6 60 36 0.5 33
04:25 1018 30.06 847 25.01 15.6 60.1 36 0.8 33.4
04:30 1018 30.06 847 25.01 15.6 60 37 1 33.8
04:35 1018 30.06 847 25.01 15.4 59.8 37 1.1 33.9
04:40 1018 30.06 847 25.01 15.5 59.8 37 1 33.8
04:45 1018 30.06 847 25.01 15.7 60.3 36 0.8 33.4
04:50 1018 30.06 847 25.01 15.9 60.5 36 1 33.8
04:55 1018 30.06 848 25.04 15.8 60.4 37 1.1 33.9
05:00 1018 30.06 848 25.04 15.6 60 37 1.2 34.2
05:05 1019 30.09 848 25.04 15.4 59.7 38 1.3 34.3
05:10 1019 30.09 848 25.04 15.3 59.5 38 1.1 33.9
05:15 1019 30.09 848 25.04 15.2 59.4 39 1.5 34.6
05:20 1019 30.09 848 25.04 14.9 58.7 40 1.5 34.6
05:25 1019 30.09 848 25.04 14.7 58.4 41 1.5 34.8
05:30 1019 30.09 848 25.04 14.5 58.2 41 1.7 35
05:35 1019 30.09 848 25.04 14.3 57.7 42 1.6 34.9
05:40 1019 30.09 848 25.04 14.2 57.5 43 1.7 35.1
05:45 1019 30.09 849 25.07 14.1 57.4 42 1.6 34.9
05:50 1020 30.12 849 25.07 14.2 57.5 42 1.6 34.9
05:55 1020 30.12 849 25.07 14.3 57.8 41 1.5 34.6
06:00 1020 30.12 849 25.07 14.4 58 41 1.4 34.6
06:05 1020 30.12 849 25.07 14.5 58.2 41 1.7 35
06:10 1020 30.12 849 25.07 14.5 58.1 41 1.5 34.8
06:15 1020 30.12 849 25.07 14.5 58.2 41 1.4 34.5
06:20 1020 30.12 849 25.07 14.7 58.5 40 1.5 34.7
06:25 1020 30.12 849 25.07 14.8 58.6 40 1.4 34.5
06:30 1020 30.12 849 25.07 14.7 58.5 40 1.3 34.4
06:35 1020 30.12 849 25.07 14.9 58.8 39 1.1 34
06:40 1020 30.12 849 25.07 15.1 59.1 38 1 33.9
06:45 1020 30.12 850 25.1 15.1 59.3 39 1.2 34.2
06:50 1020 30.12 850 25.1 15.2 59.4 37 0.7 33.3
06:55 1020 30.12 850 25.1 15.4 59.6 37 1 33.7
07:00 1020 30.12 850 25.1 15.7 60.2 36 0.8 33.4
07:05 1021 30.15 850 25.1 16 60.8 35 0.6 33.2
07:10 1021 30.15 850 25.1 16.1 61 35 0.6 33.1
07:15 1021 30.15 850 25.1 16.2 61.2 36 1.1 33.9
07:20 1021 30.15 850 25.1 16.4 61.5 36 1.3 34.3
07:25 1021 30.15 850 25.1 16.6 62 34 0.8 33.4
07:30 1021 30.15 850 25.1 16.7 62.1 34 1 33.8
07:35 1021 30.15 850 25.1 16.9 62.5 32 0.2 32.4
07:40 1021 30.15 850 25.1 17.2 62.9 32 0.6 33.1
07:45 1021 30.15 850 25.1 17.2 63 31 0.2 32.4
07:50 1021 30.15 850 25.1 17.3 63.1 32 0.6 33
07:55 1021 30.15 850 25.1 17.5 63.6 32 0.6 33
08:00 1021 30.15 850 25.1 17.9 64.2 31 0.5 32.8
08:05 1021 30.15 850 25.1 18.1 64.5 30 0.5 33
08:10 1021 30.15 850 25.1 18.2 64.7 30 0.6 33
08:15 1021 30.15 850 25.1 18.4 65 29 0.3 32.6
08:20 1021 30.15 850 25.1 18.4 65.1 30 0.5 33
08:25 1021 30.15 850 25.1 18.4 65.1 30 0.7 33.3
08:30 1021 30.15 850 25.1 18.3 64.9 31 0.9 33.7
08:35 1021 30.15 850 25.1 18.4 65.1 31 1 33.8
08:40 1021 30.15 850 25.1 18.5 65.3 30 0.7 33.3
08:45 1021 30.15 850 25.1 18.7 65.7 29 0.7 33.3
08:50 1021 30.15 850 25.1 18.7 65.6 28 -0 31.9
08:55 1021 30.15 850 25.1 19.1 66.4 26 -0.4 31.2
09:00 1021 30.15 850 25.1 19.5 67.1 26 -0.4 31.3
09:05 1021 30.15 850 25.1 19.1 66.4 25 -1.2 29.9
09:10 1021 30.15 850 25.1 19.1 66.4 25 -1.3 29.7
09:15 1021 30.15 850 25.1 19.1 66.4 26 -0.9 30.3
09:20 1021 30.15 850 25.1 19 66.3 25 -1 30.2
09:25 1021 30.15 850 25.1 19.3 66.8 24 -1.5 29.3
09:30 1021 30.15 850 25.1 19.6 67.3 25 -1 30.2
09:35 1021 30.15 850 25.1 19.5 67 25 -0.7 30.8
09:40 1021 30.15 850 25.1 19.5 67 24 -1.4 29.4
09:45 1021 30.15 850 25.1 19.4 67 23 -2 28.5
09:50 1021 30.15 850 25.1 19.4 66.9 23 -2.1 28.1
09:55 1021 30.15 850 25.1 19.4 66.8 24 -1.8 28.7
10:00 1021 30.15 850 25.1 19.6 67.2 23 -1.9 28.5
10:05 1021 30.15 850 25.1 19.4 66.8 23 -2.3 27.9
10:10 1021 30.15 850 25.1 19.6 67.3 23 -2 28.3
10:15 1021 30.15 850 25.1 19.9 67.9 22 -2.1 28.2
10:20 1021 30.15 850 25.1 19.9 67.9 23 -1.6 29.2
10:25 1021 30.15 850 25.1 19.7 67.5 23 -1.7 28.9
10:30 1021 30.15 850 25.1 20.2 68.4 23 -1.4 29.5
10:35 1021 30.15 850 25.1 20.5 68.9 22 -1.7 28.9
10:40 1021 30.15 850 25.1 20.4 68.7 23 -1.1 30
10:45 1021 30.15 850 25.1 20 68.1 24 -1.1 30
10:50 1021 30.15 850 25.1 20.3 68.5 23 -1.5 29.3
10:55 1021 30.15 850 25.1 20.5 68.9 22 -1.5 29.2
11:00 1021 30.15 850 25.1 20.9 69.5 22 -1.4 29.4
11:05 1021 30.15 850 25.1 20.6 69 22 -1.6 29.2
11:10 1021 30.15 850 25.1 20.6 69.1 22 -1.5 29.3
11:15 1021 30.15 850 25.1 20.8 69.5 23 -0.9 30.5
11:20 1021 30.15 850 25.1 21 69.8 21 -1.9 28.6
11:25 1021 30.15 850 25.1 21.1 70 21 -1.7 28.9
11:30 1021 30.15 850 25.1 21.3 70.4 21 -1.6 29.1
11:35 1021 30.15 850 25.1 21.1 70 21 -1.7 29
11:40 1021 30.15 850 25.1 21.6 70.9 20 -2.1 28.2
11:45 1021 30.15 850 25.1 21.8 71.2 21 -1.4 29.4
11:50 1021 30.15 850 25.1 21.9 71.4 21 -1.5 29.3
11:55 1021 30.15 850 25.1 22.2 72 20 -1.8 28.8
12:00 1021 30.15 850 25.1 21.9 71.4 20 -2.1 28.2
12:05 1021 30.15 850 25.1 22.1 71.8 19 -2.1 28.3
12:10 1021 30.15 850 25.1 22.4 72.4 18 -2.7 27.1
12:15 1020 30.12 850 25.1 22.9 73.3 16 -3.8 25.1
12:20 1020 30.12 850 25.1 23 73.3 17 -3.2 26.2
12:25 1020 30.12 850 25.1 23.3 73.9 17 -3.1 26.5
12:30 1020 30.12 850 25.1 23.2 73.8 15 -4.6 23.6
12:35 1020 30.12 849 25.07 23.2 73.8 15 -4.8 23.4
12:40 1020 30.12 849 25.07 23.5 74.3 15 -4.1 24.7
12:45 1020 30.12 849 25.07 23.8 74.9 15 -4.6 23.8
12:50 1020 30.12 849 25.07 23.8 74.8 14 -4.8 23.4
12:55 1020 30.12 849 25.07 24 75.2 14 -4.9 23.1
13:00 1020 30.12 849 25.07 24 75.2 14 -5.2 22.6
13:05 1020 30.12 849 25.07 24.1 75.3 14 -4.9 23.2
13:10 1020 30.12 849 25.07 23.9 74.9 14 -5.2 22.6
13:15 1020 30.12 849 25.07 24.1 75.4 13 -5.9 21.4
13:20 1020 30.12 849 25.07 24.1 75.4 13 -5.7 21.8
13:25 1020 30.12 849 25.07 24.3 75.7 13 -6.2 20.9
13:30 1020 30.12 849 25.07 24.6 76.2 12 -6.4 20.4
13:35 1020 30.12 849 25.07 24.8 76.7 13 -5.5 22.1
13:40 1020 30.12 849 25.07 24.7 76.5 12 -6.8 19.8
13:45 1020 30.12 849 25.07 24.8 76.7 11 -7.4 18.6
13:50 1020 30.12 849 25.07 24.8 76.6 11 -7.1 19.3
13:55 1020 30.12 849 25.07 24.8 76.6 12 -6.9 19.6
14:00 1020 30.12 849 25.07 25.2 77.4 11 -6.6 20.2
14:05 1020 30.12 849 25.07 25.1 77.2 11 -6.8 19.7
14:10 1020 30.12 849 25.07 24.8 76.6 11 -7.5 18.5
14:15 1020 30.12 849 25.07 25 76.9 11 -6.9 19.6
14:20 1020 30.12 849 25.07 24.8 76.6 11 -7 19.5
14:25 1020 30.12 849 25.07 24.9 76.7 11 -7.3 18.9
14:30 1020 30.12 849 25.07 24.9 76.8 11 -7.8 18
14:35 1020 30.12 849 25.07 25 77 11 -7.2 19
14:40 1020 30.12 849 25.07 24.8 76.7 11 -7.8 17.9
14:45 1020 30.12 849 25.07 24.8 76.6 11 -7.3 18.8
14:50 1020 30.12 849 25.07 24.8 76.7 11 -7.4 18.7
14:55 1020 30.12 849 25.07 24.9 76.8 11 -6.9 19.6
15:00 1020 30.12 849 25.07 25 77.1 11 -7 19.4
15:05 1020 30.12 849 25.07 25.2 77.3 11 -6.8 19.8
15:10 1020 30.12 849 25.07 25.3 77.5 11 -7 19.5
15:15 1020 30.12 849 25.07 25.3 77.5 12 -6 21.3
15:20 1020 30.12 849 25.07 25.1 77.1 11 -6.9 19.6
15:25 1020 30.12 849 25.07 25 76.9 12 -6.4 20.5
15:30 1020 30.12 849 25.07 25.2 77.4 12 -5.8 21.5
15:35 1020 30.12 849 25.07 25.3 77.5 12 -6.3 20.6
15:40 1020 30.12 849 25.07 24.8 76.7 13 -5 23
15:45 1020 30.12 849 25.07 24.8 76.7 13 -5.3 22.5
15:50 1020 30.12 849 25.07 24.9 76.9 13 -5.4 22.3
15:55 1020 30.12 849 25.07 24.8 76.7 13 -5.1 22.9
16:00 1020 30.12 849 25.07 24.7 76.5 13 -5.3 22.5
16:05 1020 30.12 849 25.07 24.4 75.8 13 -5.3 22.4
16:10 1020 30.12 849 25.07 24.5 76 13 -5.2 22.7
16:15 1020 30.12 849 25.07 24.5 76.1 13 -5.3 22.4
16:20 1020 30.12 849 25.07 24.6 76.3 13 -5.4 22.2
16:25 1020 30.12 849 25.07 24.5 76.2 13 -5.2 22.6
16:30 1020 30.12 849 25.07 24.6 76.2 13 -5.1 22.9
16:35 1020 30.12 849 25.07 24.6 76.3 14 -4.5 23.9
16:40 1020 30.12 849 25.07 24.8 76.7 14 -4.5 23.9
16:45 1020 30.12 849 25.07 24.9 76.8 14 -4.7 23.6
16:50 1020 30.12 849 25.07 24.7 76.4 14 -4.5 23.8
16:55 1020 30.12 849 25.07 24.4 75.9 14 -4.6 23.7
17:00 1020 30.12 849 25.07 24.3 75.7 14 -4.7 23.5
17:05 1020 30.12 849 25.07 24.3 75.7 14 -4.7 23.5
17:10 1020 30.12 849 25.07 24.2 75.6 14 -4.5 24
17:15 1020 30.12 849 25.07 24.3 75.7 14 -4.6 23.7
17:20 1020 30.12 850 25.1 24.1 75.4 14 -4.7 23.5
17:25 1020 30.12 850 25.1 24.1 75.4 14 -4.6 23.8
17:30 1020 30.12 850 25.1 23.9 75 14 -4.8 23.4
17:35 1020 30.12 850 25.1 23.7 74.6 14 -4.9 23.2
17:40 1020 30.12 850 25.1 23.7 74.6 15 -4.5 23.9
17:45 1020 30.12 850 25.1 23.9 75 15 -4.3 24.2
17:50 1021 30.15 850 25.1 23.2 73.7 21 0.1 32.2
17:55 1021 30.15 850 25.1 21.5 70.8 23 -0.3 31.5
18:00 1021 30.15 850 25.1 20.9 69.7 24 -0.3 31.5
18:05 1021 30.15 850 25.1 20.6 69.1 25 -0.1 31.8
18:10 1021 30.15 850 25.1 20.5 68.9 25 -0.2 31.7
18:15 1021 30.15 850 25.1 20.4 68.7 25 -0.3 31.5
18:20 1021 30.15 850 25.1 20.4 68.7 25 -0.2 31.6
18:25 1021 30.15 850 25.1 20.2 68.4 25 -0.4 31.3
18:30 1021 30.15 851 25.13 20.1 68.3 25 -0.3 31.4
18:35 1021 30.15 851 25.13 20.2 68.4 25 -0.1 31.8
18:40 1022 30.18 851 25.13 20.1 68.2 26 -0 31.9
18:45 1022 30.18 851 25.13 19.9 67.8 26 -0.1 31.8
18:50 1022 30.18 851 25.13 19.8 67.6 26 -0.1 31.8
18:55 1022 30.18 851 25.13 19.6 67.3 27 0.1 32.3
19:00 1022 30.18 851 25.13 19.6 67.3 28 0.7 33.3
19:05 1022 30.18 851 25.13 19.6 67.3 27 0.3 32.5
19:10 1022 30.18 851 25.13 19.5 67 27 0.3 32.6
19:15 1022 30.18 851 25.13 19.3 66.7 28 0.3 32.5
19:20 1022 30.18 851 25.13 19.2 66.6 28 0.6 33
19:25 1022 30.18 852 25.16 19.1 66.3 29 0.6 33
19:30 1022 30.18 852 25.16 18.9 66 30 0.9 33.6
19:35 1023 30.21 852 25.16 18.6 65.5 30 0.7 33.3
19:40 1023 30.21 852 25.16 18.3 65 31 0.9 33.6
19:45 1023 30.21 852 25.16 18.1 64.5 31 0.8 33.5
19:50 1023 30.21 852 25.16 17.8 64 32 0.9 33.7
19:55 1023 30.21 852 25.16 17.5 63.5 32 0.9 33.7
20:00 1023 30.21 852 25.16 17.3 63.2 33 0.9 33.6
20:05 1023 30.21 852 25.16 17.2 62.9 33 0.7 33.3
20:10 1023 30.21 852 25.16 17.1 62.9 33 0.7 33.3
20:15 1023 30.21 852 25.16 17.1 62.8 33 0.8 33.5
20:20 1023 30.21 852 25.16 17 62.7 33 0.8 33.4
20:25 1023 30.21 853 25.19 17 62.5 33 0.7 33.3
20:30 1023 30.21 853 25.19 17 62.5 33 0.7 33.2
20:35 1023 30.21 853 25.19 16.9 62.5 33 0.7 33.2
20:40 1023 30.21 853 25.19 16.9 62.4 33 0.6 33.1
20:45 1024 30.24 853 25.19 16.9 62.3 34 0.9 33.6
20:50 1024 30.24 853 25.19 16.6 61.9 34 0.8 33.5
20:55 1024 30.24 853 25.19 16.5 61.7 34 0.7 33.2
21:00 1024 30.24 853 25.19 16.4 61.5 34 0.8 33.4
21:05 1024 30.24 853 25.19 16.3 61.4 34 0.6 33.1
21:10 1024 30.24 853 25.19 16.3 61.3 35 1 33.8
21:15 1024 30.24 853 25.19 16.2 61.2 35 0.7 33.3
21:20 1024 30.24 853 25.19 16.2 61.1 35 0.9 33.7
21:25 1024 30.24 853 25.19 16.1 61 35 0.9 33.7
21:30 1024 30.24 853 25.19 16 60.8 37 1.3 34.3
21:35 1024 30.24 853 25.19 15.7 60.3 38 1.5 34.7
21:40 1024 30.24 853 25.19 15.5 59.9 38 1.3 34.3
21:45 1024 30.24 853 25.19 15.4 59.7 38 1.3 34.4
21:50 1024 30.24 853 25.19 15.3 59.5 39 1.5 34.6
21:55 1024 30.24 853 25.19 15.2 59.3 40 1.6 34.9
22:00 1024 30.24 853 25.19 15 59.1 40 1.6 34.9
22:05 1024 30.24 853 25.19 14.9 58.8 40 1.7 35
22:10 1024 30.24 853 25.19 14.1 57.4 46 2.8 37.1
22:15 1024 30.24 853 25.19 13.1 55.5 47 2.1 35.8
22:20 1024 30.24 853 25.19 13.1 55.5 47 2 35.7
22:25 1024 30.24 853 25.19 13.3 55.9 46 1.9 35.5
22:30 1024 30.24 854 25.22 13.3 55.9 47 2.3 36.1
22:35 1024 30.24 853 25.19 12.7 54.9 49 2.3 36.2
22:40 1024 30.24 853 25.19 12.4 54.3 49 2.1 35.8
22:45 1024 30.24 854 25.22 12.6 54.7 47 1.8 35.3
22:50 1024 30.24 854 25.22 12.9 55.2 47 2 35.6
22:55 1024 30.24 854 25.22 12.6 54.6 50 2.4 36.3
23:00 1024 30.24 854 25.22 12.1 53.8 49 1.8 35.3
23:05 1024 30.24 854 25.22 12.4 54.4 49 2.1 35.7
23:10 1025 30.27 854 25.22 12.2 54 51 2.5 36.5
23:15 1025 30.27 854 25.22 11.6 52.9 53 2.4 36.3
23:20 1025 30.27 854 25.22 11.5 52.6 52 1.9 35.5
23:25 1025 30.27 854 25.22 11.7 53.1 51 2 35.7
23:30 1025 30.27 854 25.22 12 53.5 50 2.1 35.7
23:35 1025 30.27 854 25.22 12.1 53.7 51 2.2 36
23:40 1025 30.27 854 25.22 12.1 53.7 51 2.2 35.9
23:45 1025 30.27 854 25.22 12 53.7 51 2.3 36.1
23:50 1025 30.27 854 25.22 12 53.6 51 2.2 36
23:55 1025 30.27 854 25.22 12 53.6 51 2.3 36.1
24:00 1025 30.27 854 25.22 11.9 53.4 52 2.4 36.3